Time;durP1;ratioP1;P1;durP2;ratioP2;P2;SDS_P1;SDS_P2;PMS_P1;PMS_P2;Temp;Humidity;BMP_temperature;BMP_pressure;BME280_temperature;BME280_humidity;BME280_pressure;Samples;Min_cycle;Max_cycle;Signal;HPM_P1;HPM_P2
2022/10/29 00:00:42;;;;;;;11.90;3.25;;;17.40;91.40;;;;;;4935481;29;20039;-74
2022/10/29 00:03:09;;;;;;;10.32;2.88;;;17.40;91.40;;;;;;4931799;29;20761;-74
2022/10/29 00:05:35;;;;;;;7.18;3.22;;;17.40;91.40;;;;;;4937236;29;20811;-74
2022/10/29 00:08:01;;;;;;;9.77;3.53;;;17.40;91.40;;;;;;4932834;29;20051;-74
2022/10/29 00:10:28;;;;;;;8.77;3.30;;;17.40;91.40;;;;;;4936171;29;20035;-74
2022/10/29 00:12:54;;;;;;;7.55;3.25;;;17.40;91.50;;;;;;4931247;29;20031;-74
2022/10/29 00:15:20;;;;;;;8.77;3.20;;;17.40;91.60;;;;;;4935161;29;20468;-74
2022/10/29 00:17:46;;;;;;;9.60;3.20;;;17.40;91.60;;;;;;4932853;29;20095;-74
2022/10/29 00:20:12;;;;;;;10.20;3.53;;;17.40;91.60;;;;;;4930667;29;20047;-74
2022/10/29 00:22:38;;;;;;;8.70;3.50;;;17.40;91.70;;;;;;4933184;29;20103;-74
2022/10/29 00:25:04;;;;;;;10.07;3.35;;;17.40;91.80;;;;;;4930917;28;20192;-74
2022/10/29 00:27:29;;;;;;;8.63;3.28;;;17.40;91.90;;;;;;4926840;29;20035;-74
2022/10/29 00:29:55;;;;;;;6.18;3.22;;;17.40;91.90;;;;;;4930410;28;20041;-74
2022/10/29 00:32:21;;;;;;;7.28;3.22;;;17.30;92.00;;;;;;4933556;28;20039;-74
2022/10/29 00:34:47;;;;;;;11.20;3.50;;;17.30;92.00;;;;;;4928171;29;20109;-74
2022/10/29 00:37:13;;;;;;;10.85;3.38;;;17.30;92.10;;;;;;4930738;29;20035;-74
2022/10/29 00:39:39;;;;;;;13.27;4.00;;;17.30;92.30;;;;;;4931167;29;20517;-74
2022/10/29 00:42:04;;;;;;;9.77;3.60;;;17.30;92.30;;;;;;4931066;29;20181;-74
2022/10/29 00:44:35;;;;;;;7.60;3.78;;;17.30;92.30;;;;;;4931200;28;20134;-74
2022/10/29 00:47:25;;;;;;;6.68;2.92;;;17.30;92.40;;;;;;4937491;29;20078;-74
2022/10/29 00:49:56;;;;;;;5.97;3.00;;;17.30;92.50;;;;;;4931208;29;20071;-74
2022/10/29 00:52:24;;;;;;;9.35;3.47;;;17.30;92.50;;;;;;4928549;28;20031;-74
2022/10/29 00:54:52;;;;;;;9.95;3.38;;;17.30;92.50;;;;;;4931283;28;20039;-74
2022/10/29 00:57:30;;;;;;;11.98;3.20;;;17.30;92.60;;;;;;4933131;29;20735;-74
2022/10/29 00:59:55;;;;;;;7.85;2.80;;;17.20;92.60;;;;;;4937043;29;20043;-74
2022/10/29 01:02:22;;;;;;;12.32;3.55;;;17.20;92.70;;;;;;4933642;29;20035;-74
2022/10/29 01:04:49;;;;;;;10.05;3.88;;;17.20;92.80;;;;;;4933082;28;20046;-74
2022/10/29 01:07:15;;;;;;;11.07;3.63;;;17.10;92.80;;;;;;4930943;29;20083;-74
2022/10/29 01:09:41;;;;;;;7.93;3.40;;;17.10;93.00;;;;;;4933754;29;20039;-74
2022/10/29 01:12:34;;;;;;;6.07;3.60;;;17.00;93.00;;;;;;4931216;29;20034;-74
2022/10/29 01:15:16;;;;;;;11.27;3.92;;;17.00;93.10;;;;;;4933340;29;20043;-74
2022/10/29 01:18:18;;;;;;;11.95;3.85;;;17.00;93.20;;;;;;4934436;29;20027;-74
2022/10/29 01:21:04;;;;;;;10.65;3.15;;;16.90;93.30;;;;;;4933322;29;20031;-74
2022/10/29 01:24:05;;;;;;;9.10;3.47;;;16.90;93.40;;;;;;4931524;29;20122;-73
2022/10/29 01:26:31;;;;;;;7.60;3.35;;;16.80;93.50;;;;;;4933384;29;20047;-73
2022/10/29 01:29:34;;;;;;;9.57;3.67;;;16.80;93.60;;;;;;4931996;29;20034;-74
2022/10/29 01:32:09;;;;;;;13.98;3.90;;;16.80;93.70;;;;;;4928319;29;20122;-74
2022/10/29 01:34:43;;;;;;;11.43;3.95;;;16.80;93.70;;;;;;4933632;28;20126;-74
2022/10/29 01:37:13;;;;;;;5.97;3.03;;;16.70;93.80;;;;;;4932099;29;20090;-74
2022/10/29 01:39:54;;;;;;;9.32;3.63;;;16.70;94.00;;;;;;4930932;28;20137;-74
2022/10/29 01:42:35;;;;;;;9.23;4.35;;;16.70;94.20;;;;;;4936836;29;20058;-74
2022/10/29 01:45:34;;;;;;;9.43;3.80;;;16.70;94.30;;;;;;4937086;29;20040;-74
2022/10/29 01:48:05;;;;;;;10.90;3.97;;;16.60;94.30;;;;;;4933379;29;20079;-74
2022/10/29 01:50:32;;;;;;;10.25;4.07;;;16.60;94.30;;;;;;4935724;29;20093;-74
2022/10/29 01:53:02;;;;;;;10.77;3.75;;;16.60;94.40;;;;;;4938982;28;20035;-74
2022/10/29 01:55:30;;;;;;;7.55;3.35;;;16.60;94.50;;;;;;4938769;29;20114;-74
2022/10/29 01:57:56;;;;;;;9.90;4.03;;;16.60;94.50;;;;;;4933997;29;20091;-74
2022/10/29 02:00:23;;;;;;;7.88;3.90;;;16.60;94.50;;;;;;4935905;29;20054;-73
2022/10/29 02:03:19;;;;;;;7.28;3.55;;;16.60;94.50;;;;;;4937766;29;20046;-74
2022/10/29 02:06:19;;;;;;;6.05;3.13;;;16.60;94.60;;;;;;4937118;29;20028;-74
2022/10/29 02:09:00;;;;;;;12.48;4.07;;;16.60;94.60;;;;;;4947839;28;20043;-73
2022/10/29 02:11:58;;;;;;;8.27;3.97;;;16.50;94.60;;;;;;4936713;29;20027;-73
2022/10/29 02:14:30;;;;;;;8.57;3.90;;;16.50;94.70;;;;;;4934070;29;20601;-74
2022/10/29 02:16:58;;;;;;;6.90;3.38;;;16.50;95.00;;;;;;4930912;29;20046;-74
2022/10/29 02:19:29;;;;;;;16.30;4.45;;;16.50;94.80;;;;;;4938787;28;20039;-73
2022/10/29 02:21:55;;;;;;;11.73;4.10;;;16.50;94.90;;;;;;4936325;29;20483;-74
2022/10/29 02:24:21;;;;;;;9.57;4.00;;;16.50;94.90;;;;;;4936689;28;20079;-74
2022/10/29 02:26:46;;;;;;;9.07;4.28;;;16.50;95.00;;;;;;4926920;29;20042;-73
2022/10/29 02:29:12;;;;;;;11.75;4.82;;;16.50;95.10;;;;;;4935080;28;20054;-74
2022/10/29 02:31:38;;;;;;;12.68;4.25;;;16.60;95.10;;;;;;4937001;28;20023;-74
2022/10/29 02:34:04;;;;;;;13.38;4.05;;;16.60;95.20;;;;;;4935155;29;20057;-74
2022/10/29 02:36:29;;;;;;;11.25;4.15;;;16.70;95.20;;;;;;4939132;29;20038;-73
2022/10/29 02:38:55;;;;;;;10.43;3.85;;;16.80;95.10;;;;;;4938031;28;20036;-74
2022/10/29 02:41:21;;;;;;;10.40;4.07;;;16.80;95.10;;;;;;4940471;29;20032;-74
2022/10/29 02:43:46;;;;;;;9.68;4.63;;;16.80;95.00;;;;;;4938801;28;20086;-74
2022/10/29 02:46:19;;;;;;;14.77;3.88;;;16.90;95.00;;;;;;4934420;28;20056;-74
2022/10/29 02:48:44;;;;;;;9.63;3.95;;;16.90;95.00;;;;;;4937494;29;20176;-74
2022/10/29 02:51:10;;;;;;;9.02;4.15;;;16.90;95.00;;;;;;4933041;29;20931;-74
2022/10/29 02:53:36;;;;;;;10.68;4.50;;;16.90;94.90;;;;;;4941153;28;20024;-74
2022/10/29 02:56:03;;;;;;;12.38;4.45;;;17.00;94.90;;;;;;4935431;28;20550;-74
2022/10/29 02:58:29;;;;;;;10.70;4.18;;;17.00;94.80;;;;;;4934003;29;20126;-74
2022/10/29 03:00:55;;;;;;;5.55;3.38;;;17.10;95.00;;;;;;4936565;29;20090;-74
2022/10/29 03:03:20;;;;;;;10.48;3.85;;;17.00;94.60;;;;;;4936789;28;20031;-74
2022/10/29 03:05:46;;;;;;;8.80;3.50;;;17.00;94.50;;;;;;4930522;29;20023;-74
2022/10/29 03:08:12;;;;;;;9.48;3.80;;;16.90;94.60;;;;;;4937049;29;20423;-74
2022/10/29 03:10:38;;;;;;;6.63;3.95;;;16.90;94.60;;;;;;4938945;29;20019;-74
2022/10/29 03:13:04;;;;;;;7.70;3.60;;;16.80;94.60;;;;;;4929637;28;20055;-74
2022/10/29 03:15:30;;;;;;;10.00;3.88;;;16.80;94.80;;;;;;4939833;28;20410;-74
2022/10/29 03:17:55;;;;;;;9.43;3.90;;;16.70;94.80;;;;;;4935291;28;20048;-74
2022/10/29 03:20:21;;;;;;;10.07;3.80;;;16.70;94.90;;;;;;4937367;29;20069;-74
2022/10/29 03:22:47;;;;;;;10.50;4.32;;;16.60;94.90;;;;;;4937261;29;20040;-74
2022/10/29 03:25:12;;;;;;;11.45;4.85;;;16.60;94.90;;;;;;4934483;28;20042;-74
2022/10/29 03:27:42;;;;;;;10.95;3.95;;;16.60;95.00;;;;;;4932073;28;20067;-74
2022/10/29 03:30:10;;;;;;;7.30;4.00;;;16.50;95.10;;;;;;4935267;29;20039;-74
2022/10/29 03:32:43;;;;;;;12.45;4.18;;;16.50;95.20;;;;;;4930618;29;20130;-74
2022/10/29 03:35:11;;;;;;;7.15;3.80;;;16.40;95.30;;;;;;4934215;28;20031;-74
2022/10/29 03:37:37;;;;;;;10.95;4.15;;;16.40;95.40;;;;;;4934136;28;20027;-74
2022/10/29 03:40:04;;;;;;;14.43;4.60;;;16.40;95.50;;;;;;4933271;29;20083;-74
2022/10/29 03:42:30;;;;;;;9.25;4.43;;;16.40;95.60;;;;;;4933300;29;20039;-73
2022/10/29 03:44:59;;;;;;;8.23;4.20;;;16.40;95.70;;;;;;4936552;28;20040;-74
2022/10/29 03:47:26;;;;;;;10.00;3.72;;;16.40;95.80;;;;;;4932433;29;20032;-74
2022/10/29 03:49:52;;;;;;;10.65;4.07;;;16.40;95.80;;;;;;4930481;29;20502;-74
2022/10/29 03:52:17;;;;;;;8.13;3.38;;;16.40;95.80;;;;;;4937078;28;20038;-74
2022/10/29 03:54:43;;;;;;;9.77;4.13;;;16.40;95.80;;;;;;4937472;28;20030;-74
2022/10/29 03:57:09;;;;;;;15.43;4.28;;;16.30;95.90;;;;;;4929615;29;20512;-74
2022/10/29 03:59:35;;;;;;;11.50;4.50;;;16.30;95.90;;;;;;4933032;29;20434;-74
2022/10/29 04:02:00;;;;;;;11.68;4.05;;;16.30;95.90;;;;;;4941303;28;20050;-74
2022/10/29 04:04:26;;;;;;;10.70;3.95;;;16.40;96.00;;;;;;4932204;28;20505;-74
2022/10/29 04:06:52;;;;;;;8.95;4.38;;;16.40;96.10;;;;;;4935993;28;20575;-74
2022/10/29 04:09:17;;;;;;;12.40;3.83;;;16.40;96.10;;;;;;4931739;28;20515;-74
2022/10/29 04:11:43;;;;;;;7.03;3.58;;;16.30;96.40;;;;;;4937843;29;20031;-74
2022/10/29 04:14:09;;;;;;;8.10;4.13;;;16.30;96.10;;;;;;4937476;28;20023;-74
2022/10/29 04:16:36;;;;;;;9.02;4.22;;;16.40;96.10;;;;;;4930766;29;20626;-74
2022/10/29 04:19:02;;;;;;;8.38;3.92;;;16.40;96.10;;;;;;4937980;28;20023;-74
2022/10/29 04:21:27;;;;;;;8.95;3.85;;;16.30;96.10;;;;;;4928943;29;20600;-74
2022/10/29 04:23:53;;;;;;;10.50;4.63;;;16.40;96.10;;;;;;4931862;29;20035;-74
2022/10/29 04:26:19;;;;;;;8.23;3.63;;;16.40;96.20;;;;;;4927554;28;20032;-74
2022/10/29 04:28:50;;;;;;;9.23;3.55;;;16.40;96.20;;;;;;4932667;29;20055;-75
2022/10/29 04:31:17;;;;;;;7.90;4.07;;;16.40;96.20;;;;;;4932427;29;20042;-75
2022/10/29 04:33:43;;;;;;;10.57;4.47;;;16.40;96.30;;;;;;4931862;29;20061;-74
2022/10/29 04:36:10;;;;;;;9.07;4.05;;;16.30;96.20;;;;;;4927915;29;20134;-74
2022/10/29 04:38:37;;;;;;;11.50;4.18;;;16.30;96.20;;;;;;4931799;29;20428;-74
2022/10/29 04:41:02;;;;;;;10.07;3.92;;;16.40;96.30;;;;;;4930998;28;20035;-74
2022/10/29 04:43:28;;;;;;;7.50;3.15;;;16.40;96.30;;;;;;4935277;29;20044;-74
2022/10/29 04:45:58;;;;;;;7.60;3.65;;;16.40;96.30;;;;;;4938036;28;20671;-74
2022/10/29 04:48:25;;;;;;;7.65;3.15;;;16.40;96.30;;;;;;4929347;28;20035;-74
2022/10/29 04:50:51;;;;;;;8.82;4.15;;;16.40;96.30;;;;;;4934215;28;20071;-74
2022/10/29 04:53:17;;;;;;;8.27;3.97;;;16.40;96.40;;;;;;4935159;28;20147;-75
2022/10/29 04:55:43;;;;;;;9.20;4.35;;;16.40;96.40;;;;;;4933855;28;20035;-74
2022/10/29 04:58:15;;;;;;;9.35;3.55;;;16.40;96.40;;;;;;4935504;29;20031;-74
2022/10/29 05:00:41;;;;;;;9.23;4.43;;;16.40;96.50;;;;;;4933354;29;20043;-75
2022/10/29 05:03:07;;;;;;;6.18;3.83;;;16.40;96.60;;;;;;4930744;29;20032;-74
2022/10/29 05:05:38;;;;;;;10.73;3.83;;;16.50;96.60;;;;;;4933737;28;20496;-75
2022/10/29 05:08:05;;;;;;;5.97;3.80;;;16.50;96.50;;;;;;4932532;29;20110;-74
2022/10/29 05:10:36;;;;;;;10.30;3.95;;;16.50;96.50;;;;;;4929034;29;20031;-76
2022/10/29 05:13:08;;;;;;;8.00;3.55;;;16.50;96.40;;;;;;4935626;29;20046;-74
2022/10/29 05:15:34;;;;;;;8.48;3.72;;;16.50;96.40;;;;;;4928489;28;20027;-73
2022/10/29 05:18:00;;;;;;;7.38;3.28;;;16.40;96.30;;;;;;4932559;29;20144;-73
2022/10/29 05:20:26;;;;;;;5.80;3.45;;;16.40;96.20;;;;;;4936863;29;20835;-73
2022/10/29 05:23:18;;;;;;;11.88;3.88;;;16.30;96.30;;;;;;4936482;29;20047;-73
2022/10/29 05:25:47;;;;;;;9.60;4.00;;;16.30;96.30;;;;;;4931664;29;20043;-75
2022/10/29 05:28:19;;;;;;;7.13;3.83;;;16.20;96.40;;;;;;4931110;29;20046;-72
2022/10/29 05:30:46;;;;;;;10.38;3.65;;;16.20;96.50;;;;;;4934765;29;20543;-73
2022/10/29 05:33:15;;;;;;;6.22;3.75;;;16.20;96.50;;;;;;4935541;29;20042;-73
2022/10/29 05:35:41;;;;;;;10.95;4.22;;;16.10;96.60;;;;;;4929691;29;20515;-73
2022/10/29 05:38:09;;;;;;;6.90;3.33;;;16.10;96.60;;;;;;4929629;29;20138;-73
2022/10/29 05:40:34;;;;;;;11.65;4.05;;;16.10;96.70;;;;;;4935886;29;20831;-73
2022/10/29 05:43:00;;;;;;;8.57;3.63;;;16.10;96.70;;;;;;4923111;29;20050;-72
2022/10/29 05:45:26;;;;;;;5.90;3.42;;;16.10;96.70;;;;;;4930512;29;20039;-72
2022/10/29 05:47:56;;;;;;;8.15;3.67;;;16.00;96.70;;;;;;4929445;29;20036;-72
2022/10/29 05:50:22;;;;;;;6.70;3.42;;;16.00;96.70;;;;;;4934693;29;20027;-73
2022/10/29 05:52:59;;;;;;;7.45;4.03;;;16.00;96.80;;;;;;4933448;28;20024;-70
2022/10/29 05:55:26;;;;;;;8.32;3.80;;;15.90;96.80;;;;;;4933440;29;20045;-74
2022/10/29 05:57:59;;;;;;;9.38;4.00;;;15.90;96.80;;;;;;4934904;29;20428;-74
2022/10/29 06:00:27;;;;;;;6.47;4.20;;;15.80;96.90;;;;;;4937191;29;20804;-73
2022/10/29 06:02:53;;;;;;;9.07;4.53;;;15.80;96.90;;;;;;4932839;29;20048;-73
2022/10/29 06:05:19;;;;;;;9.55;4.18;;;15.80;97.00;;;;;;4926138;28;20035;-73
2022/10/29 06:07:45;;;;;;;7.03;3.50;;;15.80;97.00;;;;;;4936825;28;20404;-73
2022/10/29 06:10:10;;;;;;;9.02;4.38;;;15.70;97.10;;;;;;4938597;29;20039;-73
2022/10/29 06:12:36;;;;;;;7.05;3.45;;;15.70;97.10;;;;;;4931180;29;20044;-73
2022/10/29 06:15:02;;;;;;;9.85;3.95;;;15.70;97.20;;;;;;4937324;29;20045;-73
2022/10/29 06:17:28;;;;;;;7.53;3.38;;;15.70;97.30;;;;;;4934316;29;20062;-73
2022/10/29 06:19:53;;;;;;;8.30;4.10;;;15.70;97.30;;;;;;4930375;29;20613;-73
2022/10/29 06:22:19;;;;;;;8.45;4.20;;;15.80;97.40;;;;;;4929122;29;20035;-73
2022/10/29 06:24:45;;;;;;;8.80;4.10;;;15.80;97.40;;;;;;4933469;28;20039;-75
2022/10/29 06:27:10;;;;;;;7.90;3.95;;;15.80;97.50;;;;;;4937488;28;20055;-73
2022/10/29 06:29:36;;;;;;;9.63;4.00;;;15.80;97.50;;;;;;4934137;29;20031;-72
2022/10/29 06:32:03;;;;;;;9.82;4.60;;;15.80;97.60;;;;;;4936054;29;20039;-73
2022/10/29 06:34:29;;;;;;;6.95;4.10;;;15.90;97.60;;;;;;4939853;28;20031;-73
2022/10/29 06:36:54;;;;;;;9.07;4.50;;;15.90;97.60;;;;;;4938005;28;20521;-73
2022/10/29 06:39:20;;;;;;;7.10;3.92;;;15.90;97.60;;;;;;4939080;29;20870;-72
2022/10/29 06:41:46;;;;;;;7.07;4.82;;;16.00;97.60;;;;;;4939348;29;20027;-73
2022/10/29 06:44:17;;;;;;;8.25;3.85;;;16.00;97.60;;;;;;4934291;28;20032;-74
2022/10/29 06:46:43;;;;;;;7.72;3.92;;;16.00;97.50;;;;;;4938978;29;20045;-73
2022/10/29 06:49:09;;;;;;;8.93;4.78;;;16.10;97.50;;;;;;4934698;29;20039;-74
2022/10/29 06:51:34;;;;;;;9.77;4.10;;;16.10;97.40;;;;;;4940230;29;20035;-73
2022/10/29 06:54:00;;;;;;;11.57;4.90;;;16.10;97.40;;;;;;4945448;28;20030;-74
2022/10/29 06:56:27;;;;;;;8.63;4.10;;;16.20;97.50;;;;;;4933573;28;20736;-72
2022/10/29 06:58:53;;;;;;;7.50;3.70;;;16.20;97.40;;;;;;4933242;29;20039;-74
2022/10/29 07:01:18;;;;;;;11.15;4.05;;;16.20;97.50;;;;;;4941853;28;20518;-69
2022/10/29 07:03:44;;;;;;;12.05;5.05;;;16.20;97.40;;;;;;4937773;29;20027;-69
2022/10/29 07:06:10;;;;;;;7.88;4.35;;;16.20;97.40;;;;;;4938033;29;20472;-68
2022/10/29 07:08:35;;;;;;;9.77;4.68;;;16.30;97.40;;;;;;4942005;28;20054;-68
2022/10/29 07:11:01;;;;;;;9.57;4.10;;;16.30;97.30;;;;;;4937187;29;20054;-68
2022/10/29 07:13:27;;;;;;;8.73;4.18;;;16.40;97.20;;;;;;4936759;28;20035;-68
2022/10/29 07:15:53;;;;;;;8.88;4.10;;;16.40;97.20;;;;;;4938237;28;20043;-65
2022/10/29 07:18:19;;;;;;;10.30;4.85;;;16.50;97.10;;;;;;4933101;29;20032;-67
2022/10/29 07:20:45;;;;;;;8.10;4.43;;;16.50;97.00;;;;;;4933631;29;20892;-68
2022/10/29 07:23:12;;;;;;;7.20;4.03;;;16.60;97.00;;;;;;4936344;29;20127;-68
2022/10/29 07:25:39;;;;;;;11.18;4.15;;;16.60;96.90;;;;;;4936076;29;20035;-67
2022/10/29 07:28:16;;;;;;;7.85;3.67;;;16.60;96.90;;;;;;4934866;28;20035;-67
2022/10/29 07:30:43;;;;;;;10.35;4.18;;;16.70;96.90;;;;;;4935684;29;20062;-67
2022/10/29 07:33:09;;;;;;;9.07;3.72;;;16.80;96.80;;;;;;4939263;29;20505;-68
2022/10/29 07:35:35;;;;;;;7.53;3.95;;;16.80;97.00;;;;;;4938208;28;20543;-67
2022/10/29 07:38:02;;;;;;;14.95;5.10;;;16.90;96.70;;;;;;4938279;28;20058;-67
2022/10/29 07:40:28;;;;;;;9.35;3.70;;;17.00;96.60;;;;;;4934821;29;20031;-67
2022/10/29 07:42:54;;;;;;;10.88;4.15;;;17.10;96.50;;;;;;4942145;29;20414;-67
2022/10/29 07:45:20;;;;;;;7.40;3.55;;;17.10;96.40;;;;;;4938858;29;20086;-69
2022/10/29 07:47:46;;;;;;;10.25;4.15;;;17.20;96.30;;;;;;4935134;29;20471;-68
2022/10/29 07:50:12;;;;;;;8.63;4.43;;;17.30;96.30;;;;;;4935565;29;20042;-70
2022/10/29 07:52:39;;;;;;;6.80;4.07;;;17.40;96.20;;;;;;4939018;28;20059;-68
2022/10/29 07:55:06;;;;;;;7.20;3.90;;;17.50;96.20;;;;;;4934889;29;20045;-67
2022/10/29 07:57:32;;;;;;;8.30;4.13;;;17.60;96.10;;;;;;4934663;29;20067;-68
2022/10/29 07:59:58;;;;;;;7.28;3.88;;;17.70;95.90;;;;;;4935784;29;20035;-68
2022/10/29 08:02:24;;;;;;;7.85;3.97;;;17.80;95.60;;;;;;4932475;29;20068;-68
2022/10/29 08:04:49;;;;;;;9.88;4.07;;;17.90;95.50;;;;;;4934491;28;20774;-67
2022/10/29 08:07:15;;;;;;;8.43;4.20;;;18.00;95.40;;;;;;4933509;28;20094;-67
2022/10/29 08:09:41;;;;;;;7.55;3.70;;;18.00;95.20;;;;;;4933956;28;20179;-67
2022/10/29 08:12:09;;;;;;;6.28;3.75;;;18.10;94.90;;;;;;4932195;29;20036;-67
2022/10/29 08:14:35;;;;;;;8.30;3.80;;;18.20;94.90;;;;;;4935780;29;20118;-67
2022/10/29 08:17:01;;;;;;;5.50;3.45;;;18.20;94.70;;;;;;4933068;29;20043;-68
2022/10/29 08:19:28;;;;;;;16.38;4.93;;;18.30;94.60;;;;;;4934146;29;20020;-68
2022/10/29 08:21:55;;;;;;;10.50;4.40;;;18.40;94.70;;;;;;4934779;29;20170;-68
2022/10/29 08:24:21;;;;;;;11.40;4.35;;;18.50;94.20;;;;;;4933276;29;20035;-68
2022/10/29 08:26:48;;;;;;;14.35;4.65;;;18.70;93.60;;;;;;4936725;29;20030;-66
2022/10/29 08:29:14;;;;;;;15.20;4.82;;;18.80;93.50;;;;;;4935824;29;20086;-67
2022/10/29 08:31:40;;;;;;;14.32;4.32;;;18.90;93.00;;;;;;4934172;29;20027;-67
2022/10/29 08:34:05;;;;;;;12.70;5.03;;;19.00;93.00;;;;;;4934664;28;20036;-69
2022/10/29 08:36:31;;;;;;;10.25;4.57;;;19.10;92.90;;;;;;4930878;29;20071;-69
2022/10/29 08:38:57;;;;;;;9.95;4.03;;;19.20;92.60;;;;;;4935808;29;20039;-66
2022/10/29 08:41:22;;;;;;;13.60;5.05;;;19.30;92.60;;;;;;4933584;29;20035;-66
2022/10/29 08:44:03;;;;;;;10.88;4.80;;;19.40;92.60;;;;;;4935271;28;20511;-66
2022/10/29 08:46:55;;;;;;;10.27;3.90;;;19.60;91.80;;;;;;4937920;29;20047;-66
2022/10/29 08:49:29;;;;;;;11.00;4.00;;;19.70;92.00;;;;;;4930306;28;20074;-66
2022/10/29 08:52:06;;;;;;;11.38;4.72;;;19.80;91.50;;;;;;4934783;29;20153;-66
2022/10/29 08:54:35;;;;;;;16.05;4.85;;;20.00;91.10;;;;;;4935531;28;20055;-66
2022/10/29 08:57:07;;;;;;;12.07;3.90;;;20.00;90.60;;;;;;4929844;28;20829;-66
2022/10/29 08:59:40;;;;;;;7.18;3.20;;;20.00;90.90;;;;;;4939654;29;20045;-67
2022/10/29 09:02:16;;;;;;;12.02;3.58;;;20.00;91.10;;;;;;4934367;29;20190;-69
2022/10/29 09:04:42;;;;;;;13.98;4.70;;;20.20;90.60;;;;;;4935605;29;20030;-68
2022/10/29 09:07:22;;;;;;;8.60;3.80;;;20.30;90.70;;;;;;4933610;29;20032;-67
2022/10/29 09:09:58;;;;;;;9.60;3.85;;;20.60;90.20;;;;;;4935059;29;20081;-67
2022/10/29 09:12:42;;;;;;;;;;;21.00;89.50;;;;;;4927727;29;20032;-67
2022/10/29 09:15:56;;;;;;;17.80;4.32;;;21.10;88.10;;;;;;4933713;28;19914;-67
2022/10/29 09:18:40;;;;;;;13.57;4.45;;;21.20;87.00;;;;;;4904927;29;20050;-67
2022/10/29 09:21:31;;;;;;;12.23;4.20;;;21.00;87.00;;;;;;4935225;29;20165;-67
2022/10/29 09:24:08;;;;;;;10.68;4.63;;;21.00;86.70;;;;;;4929517;29;20516;-67
2022/10/29 09:26:39;;;;;;;13.15;3.72;;;21.00;86.40;;;;;;4937479;29;20031;-68
2022/10/29 09:29:45;;;;;;;12.88;4.45;;;20.90;87.30;;;;;;4932738;29;20039;-68
2022/10/29 09:32:17;;;;;;;9.73;3.95;;;20.90;87.70;;;;;;4934522;29;20038;-67
2022/10/29 09:34:47;;;;;;;10.30;4.43;;;20.80;88.30;;;;;;4934761;28;20024;-67
2022/10/29 09:37:22;;;;;;;12.68;6.38;;;20.70;88.80;;;;;;4937010;29;20054;-67
2022/10/29 09:39:48;;;;;;;15.70;5.38;;;20.70;88.10;;;;;;4936431;29;20713;-68
2022/10/29 09:42:20;;;;;;;7.68;4.30;;;20.60;89.10;;;;;;4933798;28;20038;-68
2022/10/29 09:44:54;;;;;;;10.73;4.65;;;20.50;89.00;;;;;;4938699;28;20039;-68
2022/10/29 09:47:27;;;;;;;7.50;5.25;;;20.50;89.60;;;;;;4934646;29;20118;-67
2022/10/29 09:50:02;;;;;;;11.43;5.32;;;20.40;89.60;;;;;;4934047;28;20086;-67
2022/10/29 09:52:38;;;;;;;20.20;6.60;;;20.40;89.70;;;;;;4936000;28;20020;-67
2022/10/29 09:55:05;;;;;;;;;;;20.40;89.80;;;;;;4937451;29;20074;-67
2022/10/29 09:57:34;;;;;;;12.60;6.47;;;20.40;89.40;;;;;;4938821;29;20033;-67
2022/10/29 10:00:17;;;;;;;14.88;5.97;;;20.60;89.90;;;;;;4933254;29;20139;-67
2022/10/29 10:02:58;;;;;;;12.73;5.35;;;20.80;89.20;;;;;;4935585;28;20054;-67
2022/10/29 10:05:29;;;;;;;13.77;4.72;;;21.10;87.80;;;;;;4942083;28;20256;-67
2022/10/29 10:08:11;;;;;;;12.95;5.28;;;21.40;86.70;;;;;;4940850;28;20039;-69
2022/10/29 10:10:52;;;;;;;8.32;4.68;;;21.60;85.20;;;;;;4936200;29;20039;-67
2022/10/29 10:13:21;;;;;;;17.27;4.40;;;21.80;85.00;;;;;;4943456;29;20114;-69
2022/10/29 10:15:57;;;;;;;14.73;4.88;;;22.10;84.10;;;;;;4931407;28;20875;-69
2022/10/29 10:18:32;;;;;;;8.23;3.83;;;22.80;81.40;;;;;;4936457;28;20039;-68
2022/10/29 10:21:08;;;;;;;11.02;3.92;;;23.10;79.10;;;;;;4934091;29;20038;-68
2022/10/29 10:23:46;;;;;;;13.15;4.53;;;23.60;79.00;;;;;;4942170;29;20069;-68
2022/10/29 10:26:30;;;;;;;15.27;4.53;;;24.40;75.20;;;;;;4934309;28;20035;-68
2022/10/29 10:29:04;;;;;;;9.93;4.45;;;25.40;71.30;;;;;;4930956;29;20057;-69
2022/10/29 10:31:31;;;;;;;9.90;4.75;;;26.10;68.30;;;;;;4935074;29;20106;-69
2022/10/29 10:33:56;;;;;;;15.95;4.95;;;26.80;66.70;;;;;;4940546;29;20110;-68
2022/10/29 10:36:27;;;;;;;9.88;4.28;;;27.40;63.90;;;;;;4942046;29;20504;-68
2022/10/29 10:38:57;;;;;;;13.82;5.13;;;27.90;62.30;;;;;;4931241;29;20040;-69
2022/10/29 10:41:34;;;;;;;14.05;5.20;;;28.00;60.80;;;;;;4935181;29;20453;-69
2022/10/29 10:44:03;;;;;;;16.58;5.90;;;28.20;59.80;;;;;;4936297;28;20070;-69
2022/10/29 10:46:36;;;;;;;19.50;5.75;;;27.90;59.80;;;;;;4928479;29;20074;-65
2022/10/29 10:49:06;;;;;;;12.30;4.65;;;27.60;59.60;;;;;;4929378;28;20143;-65
2022/10/29 10:51:36;;;;;;;12.05;4.88;;;27.60;61.00;;;;;;4932963;28;20078;-65
2022/10/29 10:54:27;;;;;;;12.13;5.45;;;27.40;61.80;;;;;;4933940;28;20086;-65
2022/10/29 10:57:09;;;;;;;12.20;4.60;;;27.00;62.40;;;;;;4933740;29;20477;-65
2022/10/29 11:00:00;;;;;;;13.93;4.65;;;26.50;63.90;;;;;;4937021;29;20102;-65
2022/10/29 11:02:34;;;;;;;14.10;4.60;;;25.40;67.30;;;;;;4931988;29;20724;-65
2022/10/29 11:05:17;;;;;;;15.52;5.28;;;24.60;70.00;;;;;;4933521;29;20036;-65
2022/10/29 11:08:00;;;;;;;13.25;4.68;;;24.10;72.10;;;;;;4937139;29;20063;-65
2022/10/29 11:10:49;;;;;;;11.88;4.20;;;23.70;74.00;;;;;;4938016;29;20031;-65
2022/10/29 11:13:20;;;;;;;13.25;4.43;;;23.30;75.20;;;;;;4937554;28;20571;-65
2022/10/29 11:16:17;;;;;;;9.85;4.63;;;23.10;76.50;;;;;;4930248;29;20154;-65
2022/10/29 11:19:15;;;;;;;10.57;4.13;;;22.90;77.50;;;;;;4931518;29;20027;-65
2022/10/29 11:21:57;;;;;;;11.07;4.53;;;22.90;78.00;;;;;;4932279;28;20775;-65
2022/10/29 11:24:34;;;;;;;14.80;4.20;;;22.90;78.40;;;;;;4929353;29;20366;-65
2022/10/29 11:27:15;;;;;;;15.88;4.50;;;22.80;78.80;;;;;;4931250;29;20474;-65
2022/10/29 11:30:00;;;;;;;14.18;4.32;;;22.80;78.70;;;;;;4936131;29;20150;-63
2022/10/29 11:32:33;;;;;;;14.27;4.68;;;22.80;78.30;;;;;;4934072;29;20046;-63
2022/10/29 11:35:10;;;;;;;10.80;4.55;;;22.60;78.90;;;;;;4935966;29;20035;-63
2022/10/29 11:37:43;;;;;;;15.13;4.38;;;22.40;78.90;;;;;;4933632;29;20067;-63
2022/10/29 11:40:21;;;;;;;13.45;4.45;;;22.30;79.40;;;;;;4932711;29;20035;-63
2022/10/29 11:42:47;;;;;;;18.67;8.23;;;22.30;80.10;;;;;;4940337;29;20057;-76
2022/10/29 11:45:25;;;;;;;16.33;6.28;;;22.20;79.00;;;;;;4934892;29;20118;-74
2022/10/29 11:48:16;;;;;;;14.73;6.25;;;22.10;79.60;;;;;;4931947;28;20039;-75
2022/10/29 11:50:50;;;;;;;17.02;5.85;;;22.00;79.90;;;;;;4929903;28;20114;-75
2022/10/29 11:53:34;;;;;;;13.85;5.00;;;22.20;79.40;;;;;;4934195;28;20031;-75
2022/10/29 11:56:12;;;;;;;16.98;7.95;;;22.20;79.80;;;;;;4931568;29;20059;-75
2022/10/29 11:58:50;;;;;;;19.98;5.88;;;22.30;78.20;;;;;;4932667;29;20090;-74
2022/10/29 12:01:37;;;;;;;17.45;5.78;;;22.40;78.70;;;;;;4931177;29;20788;-74
2022/10/29 12:04:28;;;;;;;18.17;10.00;;;22.30;78.20;;;;;;4933221;29;20050;-75
2022/10/29 12:07:26;;;;;;;16.42;7.35;;;22.30;78.20;;;;;;4929219;28;20032;-75
2022/10/29 12:10:09;;;;;;;22.25;11.35;;;22.40;79.30;;;;;;4936622;28;20035;-76
2022/10/29 12:12:47;;;;;;;12.80;4.75;;;22.50;78.40;;;;;;4929444;29;20031;-76
2022/10/29 12:15:31;;;;;;;20.70;9.05;;;22.60;78.70;;;;;;4933728;28;20031;-76
2022/10/29 12:18:21;;;;;;;14.95;6.10;;;22.60;78.90;;;;;;4935414;28;20042;-75
2022/10/29 12:20:57;;;;;;;18.65;9.88;;;22.60;78.80;;;;;;4932684;29;20062;-75
2022/10/29 12:23:41;;;;;;;;;;;22.70;77.70;;;;;;4927386;29;20508;-75
2022/10/29 12:26:34;;;;;;;17.48;8.95;;;22.70;77.60;;;;;;4928695;29;19963;-75
2022/10/29 12:29:24;;;;;;;33.20;16.40;;;22.80;77.50;;;;;;4932306;29;20059;-75
2022/10/29 12:32:00;;;;;;;12.40;5.82;;;22.70;76.60;;;;;;4928618;29;20074;-76
2022/10/29 12:34:36;;;;;;;17.92;9.10;;;22.70;78.00;;;;;;4935166;28;20027;-74
2022/10/29 12:37:13;;;;;;;12.82;6.07;;;22.60;77.90;;;;;;4933736;29;20035;-75
2022/10/29 12:39:56;;;;;;;9.63;4.20;;;22.60;78.20;;;;;;4932545;29;20039;-75
2022/10/29 12:42:24;;;;;;;10.88;4.72;;;22.60;78.70;;;;;;4930432;28;20032;-75
2022/10/29 12:44:59;;;;;;;12.57;5.78;;;22.60;78.30;;;;;;4931632;29;20656;-75
2022/10/29 12:47:43;;;;;;;18.10;6.93;;;22.50;78.30;;;;;;4929552;29;20389;-75
2022/10/29 12:50:24;;;;;;;14.18;7.07;;;22.50;78.10;;;;;;4929183;29;20137;-75
2022/10/29 12:52:56;;;;;;;13.40;6.18;;;22.50;78.60;;;;;;4931157;28;20109;-75
2022/10/29 12:55:23;;;;;;;10.93;5.40;;;22.50;78.50;;;;;;4930752;29;20036;-75
2022/10/29 12:57:48;;;;;;;13.60;4.75;;;22.60;78.90;;;;;;4931981;29;20083;-75
2022/10/29 13:00:23;;;;;;;9.48;4.28;;;22.60;78.60;;;;;;4933928;29;20058;-75
2022/10/29 13:02:55;;;;;;;11.25;4.85;;;22.60;78.30;;;;;;4932579;29;20038;-75
2022/10/29 13:05:32;;;;;;;17.98;4.65;;;22.60;77.70;;;;;;4932667;29;20042;-75